createdAt,value
2023-01-28T00:02:16.167Z,31.88
2023-01-28T00:07:19.351Z,35.33
2023-01-28T00:12:21.724Z,25.67
2023-01-28T00:17:24.156Z,30.52
2023-01-28T00:22:26.571Z,32.20
2023-01-28T00:27:29.347Z,27.27
2023-01-28T00:32:33.632Z,28.85
2023-01-28T00:37:37.066Z,26.33
2023-01-28T00:42:39.485Z,30.58
2023-01-28T00:47:42.560Z,44.72
2023-01-28T00:52:45.019Z,33.47
2023-01-28T00:57:47.430Z,32.40
2023-01-28T01:02:49.934Z,28.70
2023-01-28T01:07:52.437Z,35.13
2023-01-28T01:12:58.190Z,44.05
2023-01-28T01:18:00.701Z,34.65
2023-01-28T01:23:03.390Z,27.77
2023-01-28T01:28:05.922Z,34.70
2023-01-28T01:33:08.343Z,31.25
2023-01-28T01:38:10.935Z,29.98
2023-01-28T01:43:19.693Z,25.60
2023-01-28T01:48:33.802Z,23.77
2023-01-28T01:53:38.812Z,31.45
2023-01-28T01:58:47.011Z,40.50
2023-01-28T02:04:18.025Z,34.47
2023-01-28T02:09:32.833Z,22.90
2023-01-28T02:14:37.639Z,24.90
2023-01-28T02:19:44.873Z,31.70
2023-01-28T02:25:33.852Z,33.00
2023-01-28T02:30:40.731Z,35.05
2023-01-28T02:35:49.782Z,30.90
2023-01-28T02:41:05.836Z,31.60
2023-01-28T02:46:45.768Z,27.83
2023-01-28T02:52:43.499Z,24.20
2023-01-28T02:58:02.913Z,28.63
2023-01-28T03:03:37.049Z,30.38
2023-01-28T03:09:03.221Z,27.60
2023-01-28T03:14:25.450Z,24.15
2023-01-28T03:19:46.506Z,25.08
2023-01-28T03:25:11.158Z,23.02
2023-01-28T03:30:51.025Z,22.10
2023-01-28T03:36:21.608Z,25.50
2023-01-28T03:41:26.179Z,33.33
2023-01-28T03:46:30.679Z,40.47
2023-01-28T03:51:33.905Z,42.35
2023-01-28T03:56:37.922Z,43.10
2023-01-28T04:01:40.626Z,21.52
2023-01-28T04:06:44.679Z,33.05
2023-01-28T04:12:19.517Z,20.15
2023-01-28T04:17:26.306Z,18.13
2023-01-28T04:22:28.901Z,13.57
2023-01-28T04:27:31.840Z,20.02
2023-01-28T04:32:43.244Z,22.48
2023-01-28T04:37:59.918Z,71.05
2023-01-28T04:43:07.659Z,92.95
2023-01-28T04:48:31.529Z,96.88
2023-01-28T04:54:00.178Z,80.90
2023-01-28T04:59:06.719Z,73.53
2023-01-28T05:09:14.301Z,23.70
2023-01-28T05:14:18.610Z,36.20
2023-01-28T05:19:31.095Z,46.70
2023-01-28T05:24:33.962Z,21.40
2023-01-28T05:29:36.495Z,21.08
2023-01-28T05:34:41.711Z,20.23
2023-01-28T05:39:49.448Z,40.92
2023-01-28T05:44:51.982Z,97.60
2023-01-28T05:50:13.624Z,21.45
2023-01-28T05:55:21.132Z,19.25
2023-01-28T06:00:24.207Z,16.47
2023-01-28T06:05:26.846Z,12.32
2023-01-28T06:10:30.247Z,15.43
2023-01-28T06:15:33.179Z,23.73
2023-01-28T06:21:01.709Z,24.17
2023-01-28T06:26:04.259Z,25.25
2023-01-28T06:31:08.816Z,30.35
2023-01-28T06:36:11.513Z,35.10
2023-01-28T06:41:13.951Z,36.08
2023-01-28T06:46:16.624Z,24.95
2023-01-28T06:51:19.474Z,25.85
2023-01-28T06:56:21.857Z,22.45
2023-01-28T07:01:24.259Z,23.65
2023-01-28T07:06:26.626Z,21.08
2023-01-28T07:11:29.217Z,23.02
2023-01-28T07:16:31.638Z,21.73
2023-01-28T07:21:33.972Z,32.20
2023-01-28T07:26:36.330Z,42.47
2023-01-28T07:31:38.911Z,42.20
2023-01-28T07:36:41.477Z,29.50
2023-01-28T07:41:44.129Z,25.48
2023-01-28T07:47:06.856Z,44.83
2023-01-28T07:52:11.845Z,38.60
2023-01-28T07:57:14.863Z,26.52
2023-01-28T08:02:18.054Z,21.83
2023-01-28T08:07:20.503Z,62.13
2023-01-28T08:12:22.937Z,110.07
2023-01-28T08:17:26.536Z,74.18
2023-01-28T08:22:28.966Z,61.97
2023-01-28T08:27:31.668Z,105.97
2023-01-28T08:32:34.138Z,116.13
2023-01-28T08:37:36.634Z,156.70
2023-01-28T08:42:39.106Z,100.60
2023-01-28T08:47:51.476Z,38.28
2023-01-28T08:53:02.530Z,28.23
2023-01-28T08:58:07.295Z,47.90
2023-01-28T09:03:10.045Z,26.13
2023-01-28T09:08:14.564Z,23.57
2023-01-28T09:13:17.180Z,31.67
2023-01-28T09:18:20.022Z,30.37
2023-01-28T09:23:24.801Z,29.55
2023-01-28T09:28:27.276Z,38.25
2023-01-28T09:33:30.752Z,50.17
2023-01-28T09:38:35.255Z,115.88
2023-01-28T09:43:54.618Z,218.60
2023-01-28T09:48:58.264Z,95.65
2023-01-28T09:54:15.565Z,52.42
2023-01-28T09:59:22.103Z,40.83
2023-01-28T10:04:35.146Z,29.17
2023-01-28T10:10:02.633Z,11.93
2023-01-28T10:15:31.141Z,25.45
2023-01-28T10:20:40.528Z,61.38
2023-01-28T10:25:45.261Z,68.43
2023-01-28T10:30:48.814Z,50.83
2023-01-28T10:35:51.254Z,42.25
2023-01-28T10:40:56.943Z,62.30
2023-01-28T10:46:05.506Z,56.22
2023-01-28T10:51:07.971Z,63.00
2023-01-28T10:56:18.637Z,70.22
2023-01-28T11:01:21.153Z,31.65
2023-01-28T11:06:26.536Z,32.15
2023-01-28T11:11:29.937Z,34.33
2023-01-28T11:16:32.585Z,40.67
2023-01-28T11:21:35.841Z,43.60
2023-01-28T11:26:40.263Z,39.25
2023-01-28T11:31:44.006Z,36.17
2023-01-28T11:36:51.809Z,57.85
2023-01-28T11:41:54.977Z,61.30
2023-01-28T11:47:22.371Z,34.70
2023-01-28T11:53:05.085Z,40.00
2023-01-28T11:58:17.846Z,46.60
2023-01-28T12:03:49.517Z,43.45
2023-01-28T12:09:36.116Z,59.47
2023-01-28T12:14:44.895Z,44.75
2023-01-28T12:20:13.226Z,34.10
2023-01-28T12:25:49.936Z,19.10
2023-01-28T12:31:04.372Z,37.63
2023-01-28T12:36:31.769Z,54.55
2023-01-28T12:41:43.902Z,180.52
2023-01-28T12:47:03.422Z,92.22
2023-01-28T12:52:17.937Z,87.03
2023-01-28T12:57:32.568Z,74.82
2023-01-28T13:02:39.672Z,161.85
2023-01-28T13:08:01.305Z,77.20
2023-01-28T13:13:07.386Z,32.47
2023-01-28T13:18:38.725Z,61.55
2023-01-28T13:23:50.225Z,75.38
2023-01-28T13:28:55.526Z,76.32
2023-01-28T13:33:58.369Z,79.70
2023-01-28T13:39:18.795Z,160.95
2023-01-28T13:44:34.009Z,183.65
2023-01-28T13:50:00.525Z,133.88
2023-01-28T13:55:30.365Z,111.85
2023-01-28T14:01:02.612Z,148.13
2023-01-28T14:06:54.638Z,59.25
2023-01-28T14:12:06.817Z,122.95
2023-01-28T14:17:20.671Z,111.53
2023-01-28T14:27:40.006Z,83.20
2023-01-28T14:32:49.939Z,68.38
2023-01-28T14:37:52.545Z,102.60
2023-01-28T14:42:55.876Z,112.90
2023-01-28T14:48:30.969Z,154.27
2023-01-28T14:53:56.589Z,180.35
2023-01-28T14:59:21.239Z,196.85
2023-01-28T15:04:29.736Z,139.57
2023-01-28T15:09:32.192Z,139.75
2023-01-28T15:14:34.719Z,92.90
2023-01-28T15:19:37.627Z,120.28
2023-01-28T15:24:43.263Z,100.00
2023-01-28T15:29:53.090Z,93.13
2023-01-28T15:34:55.949Z,93.38
2023-01-28T15:40:06.380Z,126.30
2023-01-28T15:45:16.766Z,72.45
2023-01-28T15:50:21.949Z,90.05
2023-01-28T15:55:35.600Z,265.00
2023-01-28T16:00:38.352Z,448.55
2023-01-28T16:05:42.283Z,233.90
2023-01-28T16:10:52.695Z,267.75
2023-01-28T16:15:56.428Z,141.10
2023-01-28T16:20:59.886Z,216.20
2023-01-28T16:26:18.844Z,154.02
2023-01-28T16:31:21.535Z,162.23
2023-01-28T16:36:24.133Z,165.60
2023-01-28T16:41:28.864Z,249.80
2023-01-28T16:46:33.717Z,358.80
2023-01-28T16:51:37.855Z,344.25
2023-01-28T16:56:47.671Z,541.92
2023-01-28T17:01:50.176Z,455.92
2023-01-28T17:06:53.298Z,259.55
2023-01-28T17:11:57.202Z,247.80
2023-01-28T17:17:00.022Z,183.05
2023-01-28T17:22:02.476Z,202.23
2023-01-28T17:27:05.865Z,148.45
2023-01-28T17:32:08.335Z,215.85
2023-01-28T17:37:10.815Z,158.73
2023-01-28T17:42:13.248Z,268.70
2023-01-28T17:47:15.793Z,149.18
2023-01-28T17:52:18.212Z,158.73
2023-01-28T17:57:21.706Z,127.80
2023-01-28T18:02:24.141Z,169.30
2023-01-28T18:07:26.738Z,105.90
2023-01-28T18:12:29.314Z,113.13
2023-01-28T18:17:31.755Z,88.28
2023-01-28T18:22:34.275Z,178.57
2023-01-28T18:27:36.678Z,135.00
2023-01-28T18:32:40.459Z,90.35
2023-01-28T18:37:43.390Z,104.28
2023-01-28T18:42:46.038Z,64.80
2023-01-28T18:47:48.414Z,148.95
2023-01-28T18:52:54.854Z,75.80
2023-01-28T18:57:58.476Z,68.35
2023-01-28T19:03:02.106Z,71.35
2023-01-28T19:13:08.009Z,82.07
2023-01-28T19:18:10.335Z,63.03
2023-01-28T19:23:13.119Z,48.35
2023-01-28T19:28:15.739Z,51.83
2023-01-28T19:33:18.152Z,62.35
2023-01-28T19:38:20.678Z,87.72
2023-01-28T19:43:23.726Z,94.47
2023-01-28T19:48:26.718Z,203.10
2023-01-28T19:53:29.132Z,151.75
2023-01-28T19:58:37.241Z,94.15
2023-01-28T20:03:40.217Z,77.57
2023-01-28T20:08:46.271Z,106.72
2023-01-28T20:13:52.714Z,120.88
2023-01-28T20:18:59.500Z,178.88
2023-01-28T20:24:06.694Z,130.93
2023-01-28T20:29:11.987Z,124.75
2023-01-28T20:34:19.881Z,106.15
2023-01-28T20:44:55.872Z,38.63
2023-01-28T20:50:00.003Z,77.68
2023-01-28T20:55:14.416Z,128.57
2023-01-28T21:00:17.704Z,84.30
2023-01-28T21:05:36.198Z,148.70
2023-01-28T21:10:45.798Z,188.18
2023-01-28T21:15:53.663Z,220.05
2023-01-28T21:21:03.257Z,134.73
2023-01-28T21:26:06.193Z,127.50
2023-01-28T21:31:11.754Z,128.50
2023-01-28T21:36:15.765Z,72.22
2023-01-28T21:41:18.258Z,81.35
2023-01-28T21:51:46.295Z,88.13
2023-01-28T21:56:50.252Z,120.80
2023-01-28T22:02:03.754Z,94.45
2023-01-28T22:07:08.688Z,99.18
2023-01-28T22:12:41.476Z,58.70
2023-01-28T22:23:10.453Z,95.18
2023-01-28T22:28:12.887Z,73.72
2023-01-28T22:33:15.364Z,74.90
2023-01-28T22:38:17.742Z,79.90
2023-01-28T22:43:20.135Z,50.38
2023-01-28T22:48:22.717Z,64.82
2023-01-28T22:53:25.053Z,56.97
2023-01-28T22:58:27.798Z,63.15
2023-01-28T23:03:30.816Z,44.72
2023-01-28T23:08:33.825Z,54.17
2023-01-28T23:13:54.624Z,47.43
2023-01-28T23:19:22.531Z,64.68
2023-01-28T23:24:25.427Z,71.50
2023-01-28T23:29:29.138Z,42.88
2023-01-28T23:39:39.258Z,40.20
2023-01-28T23:44:41.947Z,48.28
2023-01-28T23:49:44.322Z,32.55
2023-01-28T23:54:46.984Z,50.55
2023-01-28T23:59:49.527Z,45.80
